createdAt,value
2023-01-08T00:01:51.963Z,3.89
2023-01-08T00:04:20.334Z,3.94
2023-01-08T00:06:48.395Z,3.98
2023-01-08T00:09:16.387Z,3.98
2023-01-08T00:11:44.732Z,3.89
2023-01-08T00:14:12.908Z,3.79
2023-01-08T00:16:41.152Z,3.70
2023-01-08T00:19:10.920Z,3.66
2023-01-08T00:21:39.753Z,3.64
2023-01-08T00:24:07.908Z,3.63
2023-01-08T00:26:36.313Z,3.64
2023-01-08T00:29:04.727Z,3.64
2023-01-08T00:31:32.810Z,3.64
2023-01-08T00:34:00.897Z,3.63
2023-01-08T00:36:28.956Z,3.60
2023-01-08T00:38:59.679Z,3.52
2023-01-08T00:41:27.736Z,3.47
2023-01-08T00:43:55.742Z,3.41
2023-01-08T00:46:23.898Z,3.39
2023-01-08T00:48:52.021Z,3.39
2023-01-08T00:51:20.111Z,3.37
2023-01-08T00:53:48.130Z,3.32
2023-01-08T00:56:16.310Z,3.30
2023-01-08T00:58:44.535Z,3.34
2023-01-08T01:01:14.724Z,3.37
2023-01-08T01:03:43.463Z,3.39
2023-01-08T01:06:13.978Z,3.36
2023-01-08T01:08:43.451Z,3.35
2023-01-08T01:11:22.415Z,3.35
2023-01-08T01:13:51.441Z,3.31
2023-01-08T01:16:19.489Z,3.26
2023-01-08T01:18:47.665Z,3.23
2023-01-08T01:21:30.590Z,3.20
2023-01-08T01:24:01.022Z,3.21
2023-01-08T01:26:29.816Z,3.25
2023-01-08T01:28:58.758Z,3.28
2023-01-08T01:31:29.675Z,3.28
2023-01-08T01:33:57.941Z,3.25
2023-01-08T01:36:26.727Z,3.19
2023-01-08T01:38:57.221Z,3.16
2023-01-08T01:41:27.271Z,3.14
2023-01-08T01:44:01.281Z,3.16
2023-01-08T01:46:37.763Z,3.16
2023-01-08T01:49:12.006Z,3.02
2023-01-08T01:51:45.927Z,2.96
2023-01-08T01:54:14.456Z,2.98
2023-01-08T01:56:44.424Z,3.04
2023-01-08T01:59:13.689Z,3.10
2023-01-08T02:01:43.058Z,3.16
2023-01-08T02:04:15.008Z,3.21
2023-01-08T02:07:25.662Z,3.25
2023-01-08T02:10:15.268Z,3.24
2023-01-08T02:12:53.354Z,3.21
2023-01-08T02:15:33.426Z,3.22
2023-01-08T02:18:05.672Z,3.21
2023-01-08T02:20:41.724Z,3.19
2023-01-08T02:23:18.901Z,3.15
2023-01-08T02:26:11.986Z,3.04
2023-01-08T02:29:05.967Z,2.97
2023-01-08T02:31:36.224Z,2.82
2023-01-08T02:34:05.233Z,2.76
2023-01-08T02:36:33.453Z,2.74
2023-01-08T02:39:06.769Z,2.74
2023-01-08T02:41:53.620Z,2.73
2023-01-08T02:44:34.722Z,2.67
2023-01-08T02:47:08.064Z,2.69
2023-01-08T02:49:41.722Z,2.72
2023-01-08T02:52:15.318Z,2.73
2023-01-08T02:54:47.254Z,2.74
2023-01-08T02:57:17.428Z,2.76
2023-01-08T02:59:48.447Z,2.74
2023-01-08T03:02:17.648Z,2.70
2023-01-08T03:05:02.044Z,2.69
2023-01-08T03:07:30.401Z,2.69
2023-01-08T03:09:58.402Z,2.71
2023-01-08T03:12:46.412Z,2.68
2023-01-08T03:15:23.036Z,2.68
2023-01-08T03:17:55.186Z,2.76
2023-01-08T03:20:25.831Z,2.82
2023-01-08T03:22:57.317Z,2.90
2023-01-08T03:25:29.549Z,2.95
2023-01-08T03:28:02.616Z,2.95
2023-01-08T03:30:31.413Z,2.91
2023-01-08T03:33:01.559Z,2.81
2023-01-08T03:35:32.052Z,2.64
2023-01-08T03:38:27.590Z,2.52
2023-01-08T03:41:01.143Z,2.47
2023-01-08T03:43:30.032Z,2.45
2023-01-08T03:46:03.196Z,2.48
2023-01-08T03:48:35.513Z,2.49
2023-01-08T03:51:03.699Z,2.50
2023-01-08T03:53:32.022Z,2.55
2023-01-08T03:56:00.202Z,2.59
2023-01-08T03:58:28.112Z,2.62
2023-01-08T04:00:56.273Z,2.65
2023-01-08T04:03:25.052Z,2.70
2023-01-08T04:05:53.256Z,2.76
2023-01-08T04:08:21.481Z,2.81
2023-01-08T04:10:49.619Z,2.84
2023-01-08T04:13:17.779Z,2.87
2023-01-08T04:15:50.375Z,2.93
2023-01-08T04:18:18.990Z,2.94
2023-01-08T04:20:47.964Z,2.93
2023-01-08T04:23:16.797Z,2.91
2023-01-08T04:25:44.833Z,2.92
2023-01-08T04:28:12.956Z,2.90
2023-01-08T04:30:41.073Z,2.85
2023-01-08T04:33:09.321Z,2.82
2023-01-08T04:35:37.988Z,2.79
2023-01-08T04:38:06.129Z,2.76
2023-01-08T04:40:34.531Z,2.76
2023-01-08T04:43:02.587Z,2.73
2023-01-08T04:45:30.563Z,2.65
2023-01-08T04:47:59.713Z,2.66
2023-01-08T04:50:28.138Z,2.66
2023-01-08T04:52:58.984Z,2.62
2023-01-08T04:55:27.023Z,2.58
2023-01-08T04:57:55.067Z,2.59
2023-01-08T05:00:25.879Z,2.58
2023-01-08T05:02:54.900Z,2.57
2023-01-08T05:05:23.263Z,2.51
2023-01-08T05:07:51.221Z,2.47
2023-01-08T05:10:19.478Z,2.46
2023-01-08T05:12:47.452Z,2.47
2023-01-08T05:15:15.665Z,2.51
2023-01-08T05:17:43.879Z,2.51
2023-01-08T05:20:12.287Z,2.51
2023-01-08T05:22:40.514Z,2.53
2023-01-08T05:25:08.928Z,2.53
2023-01-08T05:27:37.101Z,2.51
2023-01-08T05:30:06.341Z,2.51
2023-01-08T05:32:34.441Z,2.52
2023-01-08T05:35:02.676Z,2.51
2023-01-08T05:37:30.713Z,2.52
2023-01-08T05:39:58.799Z,2.55
2023-01-08T05:42:27.003Z,2.58
2023-01-08T05:44:55.069Z,2.57
2023-01-08T05:47:23.139Z,2.54
2023-01-08T05:49:51.216Z,2.51
2023-01-08T05:52:19.487Z,2.49
2023-01-08T05:54:47.462Z,2.45
2023-01-08T05:57:15.578Z,2.40
2023-01-08T05:59:43.780Z,2.35
2023-01-08T06:02:12.666Z,2.31
2023-01-08T06:04:41.033Z,2.28
2023-01-08T06:07:09.364Z,2.25
2023-01-08T06:09:37.460Z,2.23
2023-01-08T06:12:05.805Z,2.22
2023-01-08T06:14:33.841Z,2.20
2023-01-08T06:17:01.996Z,2.13
2023-01-08T06:19:30.165Z,2.11
2023-01-08T06:21:58.446Z,2.07
2023-01-08T06:24:26.717Z,2.01
2023-01-08T06:26:54.938Z,2.06
2023-01-08T06:29:23.023Z,2.14
2023-01-08T06:31:51.200Z,2.19
2023-01-08T06:34:19.593Z,2.17
2023-01-08T06:36:47.770Z,2.20
2023-01-08T06:39:15.586Z,2.27
2023-01-08T06:41:44.170Z,2.33
2023-01-08T06:44:12.902Z,2.35
2023-01-08T06:46:41.035Z,2.40
2023-01-08T06:49:10.172Z,2.47
2023-01-08T06:51:38.561Z,2.52
2023-01-08T06:54:06.740Z,2.55
2023-01-08T06:56:48.782Z,2.54
2023-01-08T06:59:20.851Z,2.48
2023-01-08T07:01:50.110Z,2.47
2023-01-08T07:04:19.389Z,2.49
2023-01-08T07:06:48.468Z,2.54
2023-01-08T07:09:17.341Z,2.58
2023-01-08T07:11:45.329Z,2.64
2023-01-08T07:14:13.324Z,2.61
2023-01-08T07:16:41.365Z,2.52
2023-01-08T07:19:09.467Z,2.47
2023-01-08T07:21:37.664Z,2.46
2023-01-08T07:24:07.786Z,2.37
2023-01-08T07:26:35.683Z,2.26
2023-01-08T07:29:03.847Z,2.17
2023-01-08T07:31:32.078Z,2.09
2023-01-08T07:34:00.154Z,2.11
2023-01-08T07:36:28.197Z,2.12
2023-01-08T07:38:56.303Z,2.15
2023-01-08T07:41:24.320Z,2.19
2023-01-08T07:43:52.536Z,2.21
2023-01-08T07:46:21.067Z,2.20
2023-01-08T07:48:49.949Z,2.22
2023-01-08T07:51:18.165Z,2.29
2023-01-08T07:53:46.390Z,2.44
2023-01-08T07:56:14.516Z,2.58
2023-01-08T07:58:42.670Z,2.72
2023-01-08T08:01:12.428Z,2.78
2023-01-08T08:03:42.071Z,2.69
2023-01-08T08:06:10.642Z,2.63
2023-01-08T08:08:40.275Z,2.69
2023-01-08T08:11:10.586Z,2.75
2023-01-08T08:13:42.758Z,2.82
2023-01-08T08:16:12.306Z,2.82
2023-01-08T08:18:40.428Z,2.79
2023-01-08T08:21:08.737Z,2.81
2023-01-08T08:23:37.120Z,2.82
2023-01-08T08:26:05.725Z,2.84
2023-01-08T08:28:33.941Z,2.81
2023-01-08T08:31:02.289Z,2.85
2023-01-08T08:33:30.524Z,2.93
2023-01-08T08:35:58.719Z,3.00
2023-01-08T08:38:27.123Z,3.04
2023-01-08T08:40:55.490Z,3.06
2023-01-08T08:43:23.665Z,3.13
2023-01-08T08:45:51.924Z,3.20
2023-01-08T08:48:19.878Z,3.19
2023-01-08T08:50:47.912Z,3.27
2023-01-08T08:53:16.419Z,3.29
2023-01-08T08:55:44.497Z,3.30
2023-01-08T08:58:13.817Z,3.36
2023-01-08T09:00:43.301Z,3.46
2023-01-08T09:03:14.209Z,3.41
2023-01-08T09:05:45.648Z,3.41
2023-01-08T09:08:14.031Z,3.48
2023-01-08T09:10:42.718Z,3.57
2023-01-08T09:13:11.945Z,3.64
2023-01-08T09:15:40.047Z,3.68
2023-01-08T09:18:08.428Z,3.71
2023-01-08T09:20:37.085Z,3.77
2023-01-08T09:23:05.473Z,3.77
2023-01-08T09:25:33.613Z,3.69
2023-01-08T09:28:06.848Z,3.56
2023-01-08T09:30:35.942Z,3.29
2023-01-08T09:33:05.361Z,3.23
2023-01-08T09:35:34.399Z,3.30
2023-01-08T09:38:03.307Z,3.30
2023-01-08T09:40:40.784Z,3.39
2023-01-08T09:43:18.263Z,3.44
2023-01-08T09:45:52.064Z,3.46
2023-01-08T09:48:26.196Z,3.52
2023-01-08T09:50:54.747Z,3.63
2023-01-08T09:53:23.425Z,3.75
2023-01-08T09:56:09.117Z,3.85
2023-01-08T09:58:53.847Z,3.96
2023-01-08T10:01:25.638Z,3.94
2023-01-08T10:04:03.624Z,3.96
2023-01-08T10:07:25.868Z,4.03
2023-01-08T10:09:55.653Z,3.92
2023-01-08T10:12:31.077Z,3.82
2023-01-08T10:15:03.655Z,3.62
2023-01-08T10:17:38.761Z,3.59
2023-01-08T10:20:17.795Z,3.61
2023-01-08T10:22:48.234Z,3.63
2023-01-08T10:25:20.306Z,3.67
2023-01-08T10:27:52.205Z,3.73
2023-01-08T10:30:35.046Z,3.79
2023-01-08T10:33:06.663Z,3.89
2023-01-08T10:35:38.999Z,3.89
2023-01-08T10:38:07.520Z,3.85
2023-01-08T10:40:38.933Z,3.84
2023-01-08T10:43:21.550Z,3.81
2023-01-08T10:46:08.305Z,3.81
2023-01-08T10:48:48.879Z,3.84
2023-01-08T10:51:24.558Z,3.83
2023-01-08T10:53:54.527Z,3.78
2023-01-08T10:56:26.183Z,3.65
2023-01-08T10:58:55.548Z,3.54
2023-01-08T11:01:29.150Z,3.52
2023-01-08T11:04:01.512Z,3.43
2023-01-08T11:06:36.969Z,3.36
2023-01-08T11:09:14.379Z,3.33
2023-01-08T11:11:42.783Z,3.29
2023-01-08T11:14:30.813Z,3.19
2023-01-08T11:16:59.767Z,3.15
2023-01-08T11:19:31.886Z,3.14
2023-01-08T11:22:08.838Z,3.18
2023-01-08T11:24:42.564Z,3.15
2023-01-08T11:27:33.456Z,3.17
2023-01-08T11:30:12.609Z,3.19
2023-01-08T11:32:56.460Z,3.26
2023-01-08T11:35:38.978Z,3.35
2023-01-08T11:38:11.986Z,3.40
2023-01-08T11:41:09.905Z,3.48
2023-01-08T11:44:00.042Z,3.57
2023-01-08T11:46:46.344Z,3.62
2023-01-08T11:49:17.427Z,3.68
2023-01-08T11:52:23.812Z,3.75
2023-01-08T11:55:12.239Z,3.82
2023-01-08T11:58:23.309Z,3.85
2023-01-08T12:00:57.821Z,3.86
2023-01-08T12:03:34.904Z,3.89
2023-01-08T12:06:19.457Z,3.96
2023-01-08T12:09:03.353Z,4.00
2023-01-08T12:11:38.823Z,4.06
2023-01-08T12:14:18.623Z,4.08
2023-01-08T12:17:24.953Z,3.97
2023-01-08T12:20:02.441Z,3.89
2023-01-08T12:22:33.383Z,3.91
2023-01-08T12:25:38.961Z,3.90
2023-01-08T12:28:38.452Z,3.84
2023-01-08T12:31:25.959Z,3.88
2023-01-08T12:34:05.632Z,3.98
2023-01-08T12:36:42.965Z,4.05
2023-01-08T12:39:22.458Z,4.09
2023-01-08T12:41:54.695Z,4.11
2023-01-08T12:44:29.290Z,4.10
2023-01-08T12:47:01.760Z,4.09
2023-01-08T12:49:43.165Z,4.08
2023-01-08T12:52:31.078Z,4.08
2023-01-08T12:55:10.022Z,4.08
2023-01-08T12:57:49.189Z,4.09
2023-01-08T13:00:17.143Z,4.10
2023-01-08T13:03:02.311Z,4.14
2023-01-08T13:05:30.507Z,4.18
2023-01-08T13:08:19.965Z,4.09
2023-01-08T13:10:51.909Z,4.12
2023-01-08T13:13:32.915Z,4.17
2023-01-08T13:16:17.399Z,4.20
2023-01-08T13:19:02.731Z,4.14
2023-01-08T13:21:33.903Z,4.10
2023-01-08T13:24:24.254Z,4.08
2023-01-08T13:26:53.797Z,4.00
2023-01-08T13:29:27.688Z,3.96
2023-01-08T13:31:56.382Z,3.97
2023-01-08T13:34:40.057Z,3.92
2023-01-08T13:37:16.399Z,3.87
2023-01-08T13:39:51.811Z,3.90
2023-01-08T13:42:29.376Z,3.97
2023-01-08T13:45:01.199Z,4.00
2023-01-08T13:47:34.201Z,4.06
2023-01-08T13:50:18.188Z,4.02
2023-01-08T13:52:49.179Z,3.82
2023-01-08T13:55:24.669Z,3.72
2023-01-08T13:57:56.081Z,3.65
2023-01-08T14:00:42.864Z,3.70
2023-01-08T14:03:30.595Z,3.62
2023-01-08T14:06:10.794Z,3.53
2023-01-08T14:08:58.929Z,3.54
2023-01-08T14:11:44.824Z,3.47
2023-01-08T14:14:13.880Z,3.43
2023-01-08T14:16:42.350Z,3.42
2023-01-08T14:19:19.986Z,3.46
2023-01-08T14:21:50.674Z,3.48
2023-01-08T14:24:20.340Z,3.49
2023-01-08T14:26:54.658Z,3.54
2023-01-08T14:29:26.609Z,3.61
2023-01-08T14:31:57.671Z,3.61
2023-01-08T14:34:28.707Z,3.48
2023-01-08T14:36:57.409Z,3.48
2023-01-08T14:39:31.691Z,3.45
2023-01-08T14:42:35.347Z,3.47
2023-01-08T14:45:18.774Z,3.46
2023-01-08T14:47:50.233Z,3.49
2023-01-08T14:50:34.022Z,3.53
2023-01-08T14:53:24.097Z,3.56
2023-01-08T14:55:55.505Z,3.57
2023-01-08T14:58:36.553Z,3.58
2023-01-08T15:01:18.260Z,3.57
2023-01-08T15:03:49.111Z,3.57
2023-01-08T15:06:26.209Z,3.56
2023-01-08T15:08:54.636Z,3.59
2023-01-08T15:11:24.045Z,3.56
2023-01-08T15:13:54.255Z,3.58
2023-01-08T15:16:45.836Z,3.58
2023-01-08T15:19:20.363Z,3.44
2023-01-08T15:21:50.565Z,3.32
2023-01-08T15:24:34.541Z,3.36
2023-01-08T15:27:10.457Z,3.42
2023-01-08T15:30:00.896Z,3.47
2023-01-08T15:32:35.021Z,3.47
2023-01-08T15:35:14.740Z,3.48
2023-01-08T15:37:43.320Z,3.51
2023-01-08T15:40:13.000Z,3.51
2023-01-08T15:42:59.891Z,3.47
2023-01-08T15:45:30.021Z,3.47
2023-01-08T15:47:58.445Z,3.49
2023-01-08T15:50:27.944Z,3.50
2023-01-08T15:53:01.278Z,3.56
2023-01-08T15:55:29.784Z,3.61
2023-01-08T15:57:58.924Z,3.65
2023-01-08T16:00:27.650Z,3.66
2023-01-08T16:02:56.332Z,3.69
2023-01-08T16:05:26.289Z,3.75
2023-01-08T16:07:54.310Z,3.76
2023-01-08T16:10:23.268Z,3.80
2023-01-08T16:12:52.026Z,3.81
2023-01-08T16:15:20.367Z,3.82
2023-01-08T16:17:48.924Z,3.79
2023-01-08T16:20:18.331Z,3.78
2023-01-08T16:22:46.399Z,3.75
2023-01-08T16:25:14.914Z,3.70
2023-01-08T16:27:43.854Z,3.67
2023-01-08T16:30:16.998Z,3.58
2023-01-08T16:32:46.920Z,3.51
2023-01-08T16:35:15.157Z,3.50
2023-01-08T16:37:43.280Z,3.49
2023-01-08T16:40:12.411Z,3.49
2023-01-08T16:42:40.549Z,3.48
2023-01-08T16:45:09.072Z,3.43
2023-01-08T16:47:39.111Z,3.38
2023-01-08T16:50:08.788Z,3.39
2023-01-08T16:52:39.085Z,3.43
2023-01-08T16:55:07.741Z,3.48
2023-01-08T16:57:35.997Z,3.54
2023-01-08T17:00:06.015Z,3.57
2023-01-08T17:02:34.207Z,3.56
2023-01-08T17:05:02.718Z,3.58
2023-01-08T17:07:31.042Z,3.62
2023-01-08T17:09:59.006Z,3.63
2023-01-08T17:12:27.059Z,3.60
2023-01-08T17:14:55.084Z,3.50
2023-01-08T17:17:23.112Z,3.42
2023-01-08T17:19:51.105Z,3.37
2023-01-08T17:22:19.121Z,3.35
2023-01-08T17:24:47.410Z,3.34
2023-01-08T17:27:15.940Z,3.30
2023-01-08T17:29:44.303Z,3.29
2023-01-08T17:32:14.305Z,3.28
2023-01-08T17:34:42.577Z,3.28
2023-01-08T17:37:10.654Z,3.26
2023-01-08T17:39:38.967Z,3.24
2023-01-08T17:42:25.195Z,3.26
2023-01-08T17:44:55.987Z,3.31
2023-01-08T17:47:25.523Z,3.34
2023-01-08T17:49:56.260Z,3.33
2023-01-08T17:52:25.980Z,3.35
2023-01-08T17:54:54.238Z,3.35
2023-01-08T17:57:23.016Z,3.29
2023-01-08T17:59:51.661Z,3.20
2023-01-08T18:02:20.387Z,3.14
2023-01-08T18:04:49.379Z,3.08
2023-01-08T18:07:18.516Z,3.03
2023-01-08T18:09:46.723Z,3.01
2023-01-08T18:12:14.898Z,3.02
2023-01-08T18:14:44.225Z,2.99
2023-01-08T18:17:12.347Z,2.95
2023-01-08T18:19:40.885Z,2.94
2023-01-08T18:22:09.805Z,2.93
2023-01-08T18:24:38.354Z,2.95
2023-01-08T18:27:06.647Z,2.97
2023-01-08T18:29:34.867Z,3.03
2023-01-08T18:32:03.109Z,3.06
2023-01-08T18:34:31.477Z,3.04
2023-01-08T18:37:00.074Z,3.07
2023-01-08T18:39:29.972Z,3.07
2023-01-08T18:42:17.128Z,3.06
2023-01-08T18:44:45.334Z,3.04
2023-01-08T18:47:15.087Z,3.06
2023-01-08T18:49:43.633Z,3.05
2023-01-08T18:52:14.199Z,3.04
2023-01-08T18:54:42.592Z,3.02
2023-01-08T18:57:10.820Z,2.99
2023-01-08T18:59:39.078Z,2.98
2023-01-08T19:02:08.515Z,2.95
2023-01-08T19:04:36.911Z,2.91
2023-01-08T19:07:05.885Z,2.87
2023-01-08T19:09:33.969Z,2.85
2023-01-08T19:12:02.144Z,2.82
2023-01-08T19:14:30.760Z,2.79
2023-01-08T19:16:59.437Z,2.76
2023-01-08T19:19:28.852Z,2.69
2023-01-08T19:21:57.543Z,2.68
2023-01-08T19:24:25.779Z,2.63
2023-01-08T19:26:53.897Z,2.59
2023-01-08T19:29:22.049Z,2.57
2023-01-08T19:31:51.057Z,2.59
2023-01-08T19:34:19.392Z,2.58
2023-01-08T19:36:47.523Z,2.53
2023-01-08T19:39:15.678Z,2.53
2023-01-08T19:42:02.241Z,2.50
2023-01-08T19:44:30.403Z,2.46
2023-01-08T19:46:58.939Z,2.40
2023-01-08T19:49:27.018Z,2.36
2023-01-08T19:51:55.308Z,2.35
2023-01-08T19:54:26.032Z,2.34
2023-01-08T19:56:55.054Z,2.35
2023-01-08T19:59:23.453Z,2.35
2023-01-08T20:01:51.852Z,2.32
2023-01-08T20:04:20.135Z,2.32
2023-01-08T20:06:48.603Z,2.35
2023-01-08T20:09:16.714Z,2.38
2023-01-08T20:11:45.014Z,2.41
2023-01-08T20:14:12.992Z,2.45
2023-01-08T20:16:41.258Z,2.51
2023-01-08T20:19:10.858Z,2.57
2023-01-08T20:21:38.898Z,2.62
2023-01-08T20:24:12.792Z,2.67
2023-01-08T20:26:45.715Z,2.71
2023-01-08T20:29:16.115Z,2.74
2023-01-08T20:31:44.370Z,2.73
2023-01-08T20:34:15.678Z,2.69
2023-01-08T20:36:44.795Z,2.62
2023-01-08T20:39:15.762Z,2.59
2023-01-08T20:41:50.318Z,2.54
2023-01-08T20:44:29.165Z,2.50
2023-01-08T20:46:57.336Z,2.48
2023-01-08T20:49:26.930Z,2.46
2023-01-08T20:51:59.905Z,2.41
2023-01-08T20:54:30.437Z,2.34
2023-01-08T20:57:00.259Z,2.30
2023-01-08T20:59:28.848Z,2.31
2023-01-08T21:01:57.666Z,2.31
2023-01-08T21:04:25.957Z,2.33
2023-01-08T21:06:54.420Z,2.32
2023-01-08T21:09:22.562Z,2.30
2023-01-08T21:11:50.969Z,2.25
2023-01-08T21:14:19.446Z,2.22
2023-01-08T21:16:47.698Z,2.24
2023-01-08T21:19:15.704Z,2.24
2023-01-08T21:21:43.922Z,2.25
2023-01-08T21:24:13.226Z,2.28
2023-01-08T21:26:41.534Z,2.27
2023-01-08T21:29:11.368Z,2.24
2023-01-08T21:31:40.325Z,2.17
2023-01-08T21:34:11.969Z,2.14
2023-01-08T21:36:40.061Z,2.14
2023-01-08T21:39:08.298Z,2.14
2023-01-08T21:41:55.026Z,2.10
2023-01-08T21:44:43.885Z,2.10
2023-01-08T21:47:16.851Z,2.10
2023-01-08T21:49:46.163Z,2.09
2023-01-08T21:52:33.400Z,2.07
2023-01-08T21:55:02.432Z,2.11
2023-01-08T21:57:30.561Z,2.15
2023-01-08T21:59:58.634Z,2.18
2023-01-08T22:02:26.658Z,2.17
2023-01-08T22:04:56.463Z,2.16
2023-01-08T22:07:25.749Z,2.16
2023-01-08T22:09:54.045Z,2.13
2023-01-08T22:12:23.327Z,2.09
2023-01-08T22:14:55.737Z,2.05
2023-01-08T22:17:25.356Z,2.01
2023-01-08T22:19:53.859Z,1.98
2023-01-08T22:22:21.842Z,1.94
2023-01-08T22:24:53.117Z,1.89
2023-01-08T22:27:22.284Z,1.87
2023-01-08T22:29:50.496Z,1.84
2023-01-08T22:32:18.814Z,1.82
2023-01-08T22:34:47.144Z,1.80
2023-01-08T22:37:16.993Z,1.77
2023-01-08T22:39:46.051Z,1.77
2023-01-08T22:42:14.364Z,1.78
2023-01-08T22:44:42.603Z,1.78
2023-01-08T22:47:10.867Z,1.78
2023-01-08T22:49:38.942Z,1.82
2023-01-08T22:52:07.651Z,1.81
2023-01-08T22:54:35.927Z,1.77
2023-01-08T22:57:04.037Z,1.76
2023-01-08T22:59:32.656Z,1.78
2023-01-08T23:02:01.024Z,1.80
2023-01-08T23:04:29.035Z,1.81
2023-01-08T23:06:56.912Z,1.82
2023-01-08T23:09:25.852Z,1.77
2023-01-08T23:11:54.428Z,1.73
2023-01-08T23:14:22.545Z,1.71
2023-01-08T23:16:50.690Z,1.69
2023-01-08T23:19:18.858Z,1.66
2023-01-08T23:21:46.914Z,1.65
2023-01-08T23:24:15.110Z,1.64
2023-01-08T23:26:43.300Z,1.66
2023-01-08T23:29:11.506Z,1.68
2023-01-08T23:31:39.927Z,1.67
2023-01-08T23:34:08.887Z,1.67
2023-01-08T23:36:37.021Z,1.65
2023-01-08T23:39:05.463Z,1.65
2023-01-08T23:41:35.037Z,1.64
2023-01-08T23:44:10.696Z,1.65
2023-01-08T23:46:39.123Z,1.66
2023-01-08T23:49:07.919Z,1.68
2023-01-08T23:51:37.239Z,1.70
2023-01-08T23:54:05.417Z,1.71
2023-01-08T23:56:33.462Z,1.74
2023-01-08T23:59:02.143Z,1.77
